Carterhouse, United Kingdom
Current Conditions -  °F | °C
As of 5:50 AM on Tuesday 21 Oct 2014 (Local Time) from EGOM Reporting Station
Rain Showers Rain Showers  
Wind Chill: 52°   Ceiling: 300
Heat Index: 52°   Visibility: 2.2mi
Dew Point: 50°   Wind: 38mph
Humidity: 94%   Direction: 250°WSW
Pressure: 29.09"   Gusts: 53mph
Location:  55.37°N, 2.52°W
Report Text: EGOM 210450Z AUTO 25033G46KT 3600 -SHRA BKN003/// SCT013/// 11/10 Q0985
Loading
Personal Weather Stations






























Interactive Weather Map
Tropical Storm Tracking
New forecast layout! Learn more

10-Day Weather Forecast

Advertisements
Track Severe Weather on mobile